Tiempo atmosférico en la estación meteorológica de Capella, Huesca (600 m.)



Fecha
DESCASC
Temp. máxima en grados centígrados (hora)
DESCASC
Temp. mínima en grados centígrados (hora)
DESCASC
Temp. media en grados centígrados
DESCASC
Racha de viento máxima en m/sg (hora)
DESCASC
Velocidad máxima media en intervalos de 10 minutos(hora)
DESCASC
Precipitaciones diarias en mm
DESCASC
Precipitaciones de 00:00 a 06:00 en mm
DESCASC
Precipitaciones de 06:00 a 12:00 en mm
DESCASC
Precipitaciones de 12:00 a 18:00 en mm
DESCASC
Precipitaciones de 18:00 a 24:00 en mm
DESCASC
05-04-2020 18 (17:10) 1.2 (06:00) 9.6 8.06 (18:10) 4.17 (18:20) 0 0 0 0 0
04-04-2020 18.2 (17:50) 1.3 (07:50) 9.8 7.78 (19:20) 4.44 (19:20) 0 0 0 0 0
03-04-2020 14.2 (17:30) 1.6 (05:30) 7.9 8.33 (16:20) 5.28 (15:10) 0 0 0 0 0
02-04-2020 13.3 (19:00) 6.1 (00:00) 9.7 5.28 (19:50) 3.61 (19:40) 4.4 3.4 0 0 1
01-04-2020 9.7 (12:20) 6.8 (00:00) 8.3 7.78 (13:30) 4.17 (13:30) 10.4 0 2.6 3 4.8
31-03-2020 10.1 (15:10) 1.9 (00:00) 6 6.67 (13:00) 3.89 (13:00) 12.6 2.6 1.8 2.8 5.4
30-03-2020 10.6 (00:00) 2.4 (00:00) 6.5 6.94 (08:20) 4.72 (08:20) 1.4 0 0.6 0 0.8
29-03-2020 16.9 (18:10) 1.6 (00:00) 9.2 8.61 (14:00) 6.11 (14:00) 0 0 0 0 0
28-03-2020 15.2 (15:10) 1.2 (00:00) 8.2 7.22 (13:50) 4.44 (13:50) 0 0 0 0 0
27-03-2020 12.6 (15:20) -2.5 (-00:0) 5.1 6.39 (13:50) 3.61 (14:00) 0 0 0 0 0
26-03-2020 11.8 (13:40) 0.4 (00:00) 6.1 10 (17:40) 4.72 (17:50) 0 0 0 0 0
25-03-2020 6.9 (00:00) 3.4 (00:00) 5.2 5.28 (08:50) 2.78 (02:50) 3.4 2.6 0.8 0 0
24-03-2020 14.6 (15:30) 6.9 (00:00) 10.8 9.17 (15:40) 5 (16:30) 6 0 0 0 6
23-03-2020 14.8 (13:50) 4 (00:00) 9.4 9.72 (11:30) 6.11 (11:20) 0 0 0 0 0
22-03-2020 15.4 (16:10) 6.1 (07:40) 10.7 8.06 (13:20) 3.33 (15:00) 0 0 0 0 0
21-03-2020 15.5 (14:50) 1.7 (00:00) 8.6 6.67 (16:00) 5 (16:50) 0 0 0 0 0
20-03-2020 16.2 (14:00) 2.8 (00:00) 9.5 7.78 (14:30) 4.72 (16:10) 0 0 0 0 0
19-03-2020 18.5 (15:30) 4.5 (00:00) 11.5 9.17 (16:00) 4.17 (16:30) 0 0 0 0 0
18-03-2020 14.9 (16:10) 6.4 (00:00) 10.6 4.72 (16:50) 3.33 (16:50) 0 0 0 0 0
17-03-2020 13.2 (15:30) 7 (00:00) 10.1 7.5 (01:00) 4.44 (01:00) 0.4 0 0.2 0.2 0
16-03-2020 10 (18:20) 7.1 (00:00) 8.5 9.17 (13:30) 5.83 (01:10) 23.4 9.8 10.8 2.8 0
15-03-2020 18.7 (14:20) 2.6 (00:00) 10.7 9.72 (18:20) 5.28 (18:20) 6.8 0 0 0 6.8
14-03-2020 15.1 (14:20) 5.6 (00:00) 10.4 8.61 (15:10) 5.83 (15:10) 0 0 0 0 0
13-03-2020 15 (01:10) 8.1 (23:20) 11.6 7.5 (01:10) 5 (01:10) 0 0 0 0 0
12-03-2020 22.8 (14:10) 5.5 (00:00) 14.1 11.94 (22:40) 6.11 (22:40) 1 0 0 0 1
11-03-2020 21.1 (14:20) 3.8 (00:00) 12.5 7.22 (16:00) 5.28 (16:00) 0 0 0 0 0
10-03-2020 17.3 (17:10) 0.7 (00:00) 9 6.11 (16:10) 4.44 (16:40) 0 0 0 0 0
09-03-2020 16.8 (15:40) 2.3 (00:00) 9.5 9.17 (13:20) 6.11 (19:30) 0 0 0 0 0
08-03-2020 15.6 (16:10) 0.1 (00:00) 7.9 7.22 (14:10) 4.17 (15:00) 0 0 0 0 0

Gráficas

Temp. máximas Temp. mínimas Temp. medias Precipitaciones Rachas de viento máximas Velocidades máximas media en intervalos de 10 minutos

Datos horarios

Fecha y hora oficial Temperatura (ºC) Velocidad del viento (km/h) Dirección del viento Racha (km/h) Dirección de racha Precipitación (mm) Presión (hPa) Tendencia (hPa) Humedad (%)
2020-04-06 23:00:00 11.1 0 Calma 5 Nordeste 0 -- -- 82
2020-04-06 22:00:00 12.2 3 Sudoeste 8 Este 0 -- -- 77
2020-04-06 21:00:00 13.4 4 Sur 12 Sudoeste 0 -- -- 67
2020-04-06 20:00:00 14 10 Sudoeste 17 Sudoeste 0 -- -- 63
2020-04-06 19:00:00 16.1 4 Sudoeste 10 Sudoeste 0 -- -- 58
2020-04-06 18:00:00 16.9 2 Noroeste 8 Oeste 0 -- -- 48
2020-04-06 17:00:00 17.5 5 Nordeste 14 Nordeste 0 -- -- 44
2020-04-06 16:00:00 16.1 4 Nordeste 10 Nordeste 0 -- -- 50
2020-04-06 15:00:00 14 2 Noroeste 8 Sudoeste 0 -- -- 60
2020-04-06 14:00:00 12.5 5 Sudoeste 11 Sudoeste 0 -- -- 67
2020-04-06 13:00:00 11.3 7 Sudoeste 10 Oeste 0 -- -- 66
2020-04-06 12:00:00 10.9 6 Sudoeste 13 Oeste 0 -- -- 72
2020-04-06 11:00:00 10.3 2 Sudoeste 5 Norte 0 -- -- 76
2020-04-06 10:00:00 8.1 0 Calma 6 Este 0 -- -- 84
2020-04-06 09:00:00 6.9 0 Calma 6 Nordeste 0 -- -- 90
2020-04-06 08:00:00 6.5 0 Calma 7 Noroeste 0 -- -- 88
2020-04-06 07:00:00 6.3 3 Este 9 Nordeste 0 -- -- 86
2020-04-06 06:00:00 6.3 4 Noroeste 7 Sur 0 -- -- 88
2020-04-06 05:00:00 6.8 3 Este 6 Este 0 -- -- 84
2020-04-06 04:00:00 7.1 4 Este 12 Nordeste 0 -- -- 83
2020-04-06 03:00:00 6.8 4 Este 11 Este 0 -- -- 82
2020-04-06 02:00:00 6.3 5 Nordeste 10 Nordeste 0 -- -- 84
2020-04-06 01:00:00 6.5 3 Este 9 Nordeste 0 -- -- 83
2020-04-06 00:00:00 6.7 0 Calma 5 Nordeste 0 -- -- 81
2020-04-05 23:00:00 8.4 0 Calma 9 Sur 0 -- -- 76
2020-04-05 22:00:00 10.1 4 Sur 10 Oeste 0 -- -- 70
2020-04-05 21:00:00 12.3 3 Oeste 17 Sudeste 0 -- -- 61
2020-04-05 20:00:00 14 11 Sudeste 23 Sudeste 0 -- -- 52
2020-04-05 19:00:00 15.7 8 Sudeste 29 Sudeste 0 -- -- 45
2020-04-05 18:00:00 17.6 10 Sur 22 Sur 0 -- -- 41
2020-04-05 17:00:00 17.8 9 Este 22 Este 0 -- -- 36
2020-04-05 16:00:00 17.5 5 Sur 20 Nordeste 0 -- -- 39
2020-04-05 15:00:00 16.8 6 Norte 19 Nordeste 0 -- -- 37
2020-04-05 14:00:00 16.2 9 Este 18 Nordeste 0 -- -- 39
2020-04-05 13:00:00 14.7 7 Este 22 Nordeste 0 -- -- 47
2020-04-05 12:00:00 13.7 11 Nordeste 19 Este 0 -- -- 45
2020-04-05 11:00:00 10.2 6 Oeste 13 Sudoeste 0 -- -- 76
2020-04-05 10:00:00 6.9 4 Oeste 8 Oeste 0 -- -- 84
2020-04-05 09:00:00 4.7 4 Nordeste 12 Nordeste 0 -- -- 90
2020-04-05 08:00:00 1.8 5 Nordeste 9 Nordeste 0 -- -- 94
2020-04-05 07:00:00 2.2 3 Nordeste 12 Este 0 -- -- 92
2020-04-05 06:00:00 1.2 4 Nordeste 6 Nordeste 0 -- -- 92
2020-04-05 05:00:00 2.6 3 Nordeste 10 Este 0 -- -- 89
2020-04-05 04:00:00 3.3 4 Este 9 Este 0 -- -- 89
2020-04-05 03:00:00 4.1 2 Nordeste 10 Este 0 -- -- 88
2020-04-05 02:00:00 5.1 6 Este 12 Nordeste 0 -- -- 89
2020-04-05 01:00:00 5.8 8 Nordeste 13 Nordeste 0 -- -- 87
2020-04-05 00:00:00 6.9 4 Este 8 Sudeste 0 -- -- 83
2020-04-04 23:00:00 9.1 5 Nordeste 13 Sudeste 0 -- -- 73
2020-04-04 22:00:00 9.9 0 Calma 16 Sudoeste 0 -- -- 69
2020-04-04 21:00:00 11.6 8 Oeste 23 Sudeste 0 -- -- 66
2020-04-04 20:00:00 15.1 11 Sudeste 28 Sudeste 0 -- -- 53
2020-04-04 19:00:00 16.8 11 Sudeste 24 Sur 0 -- -- 46
2020-04-04 18:00:00 17.9 11 Sudeste 17 Sudeste 0 -- -- 45
2020-04-04 17:00:00 17.9 7 Sudeste 23 Sudeste 0 -- -- 45
2020-04-04 16:00:00 16.7 5 Este 14 Oeste 0 -- -- 48
2020-04-04 15:00:00 16.4 6 Noroeste 13 Noroeste 0 -- -- 51
2020-04-04 14:00:00 15 5 Oeste 13 Oeste 0 -- -- 57
2020-04-04 13:00:00 14 6 Oeste 12 Sudoeste 0 -- -- 64
2020-04-04 12:00:00 14.1 8 Nordeste 19 Este 0 -- -- 61
2020-04-04 11:00:00 12 10 Nordeste 18 Nordeste 0 -- -- 69
2020-04-04 10:00:00 8.2 3 Norte 6 Norte 0 -- -- 87
2020-04-04 09:00:00 4.8 4 Nordeste 8 Este 0 -- -- 97
2020-04-04 08:00:00 1.7 4 Nordeste 8 Este 0 -- -- 97
2020-04-04 07:00:00 2.4 3 Este 9 Este 0 -- -- 97
2020-04-04 06:00:00 2.5 3 Nordeste 10 Nordeste 0 -- -- 96
2020-04-04 05:00:00 2.4 3 Este 6 Nordeste 0 -- -- 95
2020-04-04 04:00:00 4 5 Este 9 Nordeste 0 -- -- 94
2020-04-04 03:00:00 3.8 5 Este 9 Nordeste 0 -- -- 94
2020-04-04 02:00:00 4.3 5 Este 9 Nordeste 0 -- -- 94
2020-04-04 01:00:00 4.7 3 Sudeste 11 Nordeste 0 -- -- 90
2020-04-04 00:00:00 5.6 5 Este 10 Nordeste 0 -- -- 90
2020-04-03 23:00:00 6.9 5 Este 9 Este 0 -- -- 87
2020-04-03 22:00:00 6.7 3 Nordeste 6 Nordeste 0 -- -- 86
2020-04-03 21:00:00 9.4 5 Sur 16 Sur 0 -- -- 76
2020-04-03 20:00:00 12.4 9 Sudoeste 19 Sudoeste 0 -- -- 64
2020-04-03 19:00:00 13.5 12 Sudoeste 25 Sudoeste 0 -- -- 61
2020-04-03 18:00:00 14 14 Sudoeste 27 Sudoeste 0 -- -- 58
2020-04-03 17:00:00 14 16 Sudoeste 30 Oeste 0 -- -- 62
2020-04-03 16:00:00 13.5 17 Sudoeste 30 Oeste 0 -- -- 66
2020-04-03 15:00:00 12.9 18 Sudoeste 27 Sudoeste 0 -- -- 71
2020-04-03 14:00:00 12 15 Sudoeste 28 Sudoeste 0 -- -- 72
2020-04-03 13:00:00 10.9 17 Oeste 23 Oeste 0 -- -- 81
2020-04-03 12:00:00 10.3 13 Oeste 20 Oeste 0 -- -- 84
2020-04-03 11:00:00 8.6 4 Oeste 6 Sudoeste 0 -- -- 87
2020-04-03 10:00:00 5 3 Este 5 Este 0 -- -- 91
2020-04-03 09:00:00 2.5 3 Nordeste 9 Norte 0 -- -- 94
2020-04-03 08:00:00 1.9 5 Este 9 Este 0 -- -- 94
2020-04-03 07:00:00 2.3 3 Nordeste 7 Este 0 -- -- 96
2020-04-03 06:00:00 2.3 4 Sudeste 10 Nordeste 0 -- -- 97
2020-04-03 05:00:00 2 3 Norte 10 Este 0 -- -- 94
2020-04-03 04:00:00 2.1 3 Este 10 Este 0 -- -- 95
2020-04-03 03:00:00 3.1 6 Este 10 Este 0 -- -- 95
2020-04-03 02:00:00 4.1 5 Este 11 Nordeste 0 -- -- 95
2020-04-03 01:00:00 4.9 3 Nordeste 10 Nordeste 0 -- -- 95
2020-04-03 00:00:00 6.1 4 Este 9 Este 0 -- -- 96
2020-04-02 23:00:00 6.6 6 Nordeste 9 Este 0 -- -- 94
2020-04-02 22:00:00 8.2 0 Calma 7 Sudeste 0 -- -- 94
2020-04-02 21:00:00 9.5 4 Noroeste 18 Sudoeste 0.4 -- -- 92
2020-04-02 20:00:00 10.7 8 Sudoeste 19 Sudoeste 0.6 -- -- 84
2020-04-02 19:00:00 13.3 8 Sudoeste 18 Sudoeste 0 -- -- 66
2020-04-02 18:00:00 12.1 7 Sudoeste 18 Sudoeste 0 -- -- 71
2020-04-02 17:00:00 12.6 8 Sudoeste 15 Sudoeste 0 -- -- 73
2020-04-02 16:00:00 11.6 9 Oeste 16 Oeste 0 -- -- 75
2020-04-02 15:00:00 11 10 Oeste 17 Oeste 0 -- -- 80
2020-04-02 14:00:00 11.2 9 Sudoeste 14 Oeste 0 -- -- 76
2020-04-02 13:00:00 10 8 Oeste 15 Oeste 0 -- -- 84
2020-04-02 12:00:00 9.3 10 Oeste 15 Oeste 0 -- -- 89
2020-04-02 11:00:00 8.6 6 Oeste 10 Oeste 0 -- -- 94
2020-04-02 10:00:00 7.9 4 Oeste 7 Oeste 0 -- -- 100
2020-04-02 09:00:00 7.1 0 Calma 3 Noroeste 0 -- -- 100
2020-04-02 08:00:00 6.8 0 Calma 3 Nordeste 0 -- -- 100
2020-04-02 07:00:00 6.8 0 Calma 0 Calma 0 -- -- 100
2020-04-02 06:00:00 6.8 0 Calma 2 Norte 0.2 -- -- 100
2020-04-02 05:00:00 6.9 0 Calma 6 Sudoeste 0.6 -- -- 100
2020-04-02 04:00:00 6.9 5 Sudoeste 10 Sudoeste -- -- -- 99
2020-04-02 03:00:00 7.1 5 Sudoeste 7 Oeste 0.4 -- -- 99
2020-04-02 02:00:00 7.3 2 Sudoeste 5 Oeste 0.4 -- -- 99
2020-04-02 01:00:00 7.2 3 Oeste 5 Sur 0.6 -- -- 99
2020-04-02 00:00:00 7.3 3 Sur 8 Sudoeste 0.4 -- -- 98
2020-04-01 23:00:00 7.4 6 Sudoeste 7 Sudoeste 0 -- -- 98
2020-04-01 22:00:00 7.6 2 Sudoeste 3 Sur 0.6 -- -- 98
2020-04-01 21:00:00 7.7 3 Sudoeste 9 Sudoeste 1.4 -- -- 98
2020-04-01 20:00:00 8.1 6 Sudoeste 9 Sudoeste 1.4 -- -- 95
2020-04-01 19:00:00 8.5 4 Sudoeste 10 Sudoeste 1 -- -- 95
2020-04-01 18:00:00 8.8 8 Oeste 13 Sur 0.6 -- -- 95
2020-04-01 17:00:00 8.7 10 Sudoeste 15 Sudoeste 0.6 -- -- 93
2020-04-01 16:00:00 9.2 9 Sudoeste 13 Sudoeste 0 -- -- 93
2020-04-01 15:00:00 9 5 Nordeste 12 Nordeste 0.8 -- -- 93
2020-04-01 14:00:00 8.6 9 Nordeste 28 Nordeste 1 -- -- 89
2020-04-01 13:00:00 9.6 6 Nordeste 12 Oeste 0 -- -- 90
2020-04-01 12:00:00 9.2 3 Norte 14 Nordeste 0 -- -- 93
2020-04-01 11:00:00 8.2 7 Nordeste 15 Este 1.4 -- -- 94
2020-04-01 10:00:00 8.3 7 Nordeste 13 Este 1 -- -- 93
2020-04-01 09:00:00 7.9 8 Nordeste 13 Nordeste 0 -- -- 93
2020-04-01 08:00:00 7.1 4 Nordeste 9 Este 0 -- -- 96
2020-04-01 07:00:00 7 3 Norte 12 Nordeste 0.2 -- -- 96
2020-04-01 06:00:00 6.9 5 Nordeste 11 Nordeste 0 -- -- 98
2020-04-01 05:00:00 6.8 6 Nordeste 9 Nordeste 0 -- -- 98
2020-04-01 04:00:00 6.9 2 Nordeste 4 Nordeste 0 -- -- 97
2020-04-01 03:00:00 6.9 2 Nordeste 5 Nordeste 0 -- -- 97
2020-04-01 02:00:00 7 2 Oeste 9 Este 0 -- -- 95
2020-04-01 01:00:00 7.2 3 Este 13 Este 0 -- -- 93
2020-04-01 00:00:00 7.1 8 Este 12 Este 0.6 -- -- 95
2020-03-31 23:00:00 7.1 7 Este 12 Este 0.8 -- -- 97
2020-03-31 22:00:00 7.1 7 Nordeste 12 Nordeste 0.6 -- -- 96
2020-03-31 21:00:00 7.4 6 Nordeste 11 Nordeste 1.2 -- -- 96
2020-03-31 20:00:00 7.9 6 Nordeste 12 Nordeste 1 -- -- 94
2020-03-31 19:00:00 8.4 5 Nordeste 10 Este 1.2 -- -- 94
2020-03-31 18:00:00 8.6 6 Nordeste 12 Nordeste 1.2 -- -- 92
2020-03-31 17:00:00 9.4 6 Nordeste 23 Nordeste 0.6 -- -- 88
2020-03-31 16:00:00 10 6 Nordeste 18 Nordeste 0.2 -- -- 89
2020-03-31 15:00:00 9.9 9 Nordeste 15 Nordeste 0.6 -- -- 87
2020-03-31 14:00:00 9.7 10 Nordeste 21 Este 0.2 -- -- 85
2020-03-31 13:00:00 9.4 14 Este 24 Este 0 -- -- 82
2020-03-31 12:00:00 8.2 4 Oeste 17 Nordeste 0 -- -- 91
2020-03-31 11:00:00 7.3 10 Nordeste 19 Nordeste 0 -- -- 97
2020-03-31 10:00:00 4.4 2 Norte 4 Noroeste 0 -- -- 99
2020-03-31 09:00:00 3.8 0 Calma 6 Este 0.4 -- -- 99
2020-03-31 08:00:00 2.9 4 Este 6 Nordeste 0.8 -- -- 98
2020-03-31 07:00:00 2.8 3 Sur 9 Sur 0.6 -- -- 98
2020-03-31 06:00:00 2.5 5 Sudoeste 10 Sudoeste 0.6 -- -- 97
2020-03-31 05:00:00 2.5 2 Oeste 4 Sudoeste 0.2 -- -- 96
2020-03-31 04:00:00 2.3 2 Oeste 3 Oeste 0.4 -- -- 96
2020-03-31 03:00:00 2.1 0 Calma 5 Nordeste 0.4 -- -- 96
2020-03-31 02:00:00 2 3 Norte 5 Norte 0.4 -- -- 94
2020-03-31 01:00:00 2.1 2 Sur 5 Sudoeste 0.6 -- -- 92
2020-03-31 00:00:00 2.4 4 Sudoeste 6 Sur 0.2 -- -- 91
2020-03-30 23:00:00 3.1 4 Sur 7 Sudoeste 0.6 -- -- 86
2020-03-30 22:00:00 4 4 Norte 10 Norte 0 -- -- 82
2020-03-30 21:00:00 4.9 4 Oeste 9 Sudoeste 0 -- -- 70
2020-03-30 20:00:00 5.5 3 Nordeste 10 Norte 0 -- -- 77
2020-03-30 19:00:00 6.2 7 Norte 10 Norte 0 -- -- 73
2020-03-30 18:00:00 6.4 2 Noroeste 12 Este 0 -- -- 67
2020-03-30 17:00:00 5.4 4 Sudeste 15 Sudeste 0 -- -- 74
2020-03-30 16:00:00 5.2 6 Sudeste 21 Sudeste 0 -- -- 79
2020-03-30 15:00:00 5.2 13 Sudeste 23 Sudeste 0 -- -- 82
2020-03-30 14:00:00 5.3 12 Sur 21 Sur 0 -- -- 84
2020-03-30 13:00:00 5.6 4 Norte 10 Norte 0 -- -- 86
2020-03-30 12:00:00 4.7 6 Noroeste 19 Sur 0.4 -- -- 90
2020-03-30 11:00:00 4.2 12 Sur 22 Sur 0.2 -- -- 89
2020-03-30 10:00:00 5.2 5 Noroeste 21 Sudoeste 0 -- -- 83
2020-03-30 09:00:00 5.2 9 Sudeste 25 Sur 0 -- -- 86
2020-03-30 08:00:00 5.7 10 Sudeste 21 Sudeste 0 -- -- 86
2020-03-30 07:00:00 5.9 3 Oeste 16 Sudeste 0 -- -- 86
2020-03-30 06:00:00 5.7 2 Nordeste 11 Nordeste 0 -- -- 87
2020-03-30 05:00:00 6.8 4 Sur 13 Sudeste 0 -- -- 82
2020-03-30 04:00:00 7.4 7 Nordeste 13 Nordeste 0 -- -- 84
2020-03-30 03:00:00 7.4 5 Sur 8 Sudeste 0 -- -- 81
2020-03-30 02:00:00 8.3 7 Este 14 Nordeste 0 -- -- 72
2020-03-30 01:00:00 9.4 8 Nordeste 16 Este 0 -- -- 71
2020-03-30 00:00:00 10.6 9 Este 20 Nordeste 0 -- -- 67
2020-03-29 23:00:00 11.6 14 Nordeste 23 Este 0 -- -- 63
2020-03-29 22:00:00 12.5 12 Nordeste 26 Nordeste 0 -- -- 61
2020-03-29 21:00:00 13.2 5 Oeste 15 Sur 0 -- -- 57
2020-03-29 20:00:00 14.8 8 Sur 18 Sudoeste 0 -- -- 50
2020-03-29 19:00:00 15.6 8 Sudoeste 22 Sur 0 -- -- 48
2020-03-29 18:00:00 16.8 12 Sudoeste 26 Oeste 0 -- -- 42
2020-03-29 17:00:00 16.6 15 Sudoeste 26 Sudoeste 0 -- -- 51
2020-03-29 16:00:00 16 19 Oeste 31 Sudoeste 0 -- -- 50
2020-03-29 15:00:00 15.6 20 Sudoeste 31 Sudoeste 0 -- -- 54
2020-03-29 14:00:00 15.2 22 Sudoeste 31 Oeste 0 -- -- 55
2020-03-29 13:00:00 15.1 12 Oeste 18 Oeste 0 -- -- 54
2020-03-29 12:00:00 13.4 7 Sudoeste 12 Oeste 0 -- -- 55
2020-03-29 11:00:00 10.8 8 Oeste 10 Oeste 0 -- -- 66
2020-03-29 10:00:00 8 3 Norte 5 Este 0 -- -- 75
2020-03-29 09:00:00 4.3 5 Este 7 Este 0 -- -- 88
2020-03-29 08:00:00 1.6 3 Nordeste 9 Este 0 -- -- 90
2020-03-29 07:00:00 2.7 4 Nordeste 6 Este 0 -- -- 88
2020-03-29 06:00:00 3 3 Sudeste 9 Nordeste 0 -- -- 90
2020-03-29 05:00:00 3.1 3 Este 8 Nordeste 0 -- -- 86
2020-03-29 03:00:00 4.5 2 Este 10 Nordeste 0 -- -- 82
2020-03-29 01:00:00 6 6 Nordeste 13 Nordeste 0 -- -- 79
2020-03-29 00:00:00 6.5 8 Nordeste 14 Nordeste 0 -- -- 76
2020-03-28 23:00:00 7.6 8 Nordeste 15 Nordeste 0 -- -- 74
2020-03-28 22:00:00 8.7 7 Nordeste 12 Nordeste 0 -- -- 73
2020-03-28 21:00:00 11.2 3 Oeste 10 Sudoeste 0 -- -- 61
2020-03-28 20:00:00 12.6 8 Sudoeste 18 Sur 0 -- -- 55
2020-03-28 19:00:00 13.3 9 Sudoeste 20 Sudoeste 0 -- -- 52
2020-03-28 18:00:00 13.9 10 Sudoeste 22 Sudoeste 0 -- -- 54
2020-03-28 17:00:00 14.8 11 Sudoeste 25 Sudoeste 0 -- -- 52
2020-03-28 16:00:00 15.1 13 Sudoeste 24 Sudoeste 0 -- -- 49
2020-03-28 15:00:00 15 11 Sudoeste 24 Sudoeste 0 -- -- 50
2020-03-28 14:00:00 14.6 15 Sudoeste 26 Oeste 0 -- -- 53
2020-03-28 13:00:00 14 12 Oeste 23 Sudoeste 0 -- -- 53
2020-03-28 12:00:00 12.9 10 Oeste 17 Sudoeste 0 -- -- 60
2020-03-28 11:00:00 10.9 10 Oeste 14 Sudoeste 0 -- -- 62
2020-03-28 10:00:00 8.1 3 Norte 6 Oeste 0 -- -- 70
2020-03-28 09:00:00 4.4 3 Este 6 Nordeste 0 -- -- 86
2020-03-28 08:00:00 1.9 3 Nordeste 7 Este 0 -- -- 92
2020-03-28 07:00:00 1.3 3 Sur 10 Nordeste 0 -- -- 91
2020-03-28 06:00:00 1.6 2 Este 6 Este 0 -- -- 89
2020-03-28 05:00:00 2.8 3 Sudoeste 9 Este 0 -- -- 86
2020-03-28 04:00:00 4.2 0 Calma 3 Oeste 0 -- -- 87
2020-03-28 03:00:00 4.8 0 Calma 3 Oeste 0 -- -- 84
2020-03-28 02:00:00 4.9 0 Calma 6 Nordeste 0 -- -- 84
2020-03-28 01:00:00 4.8 5 Nordeste 9 Nordeste 0 -- -- 79
2020-03-28 00:00:00 4.6 3 Nordeste 10 Nordeste 0 -- -- 80
2020-03-27 23:00:00 4.9 3 Este 8 Este 0 -- -- 77
2020-03-27 22:00:00 5.4 5 Este 9 Nordeste 0 -- -- 76
2020-03-27 21:00:00 6 6 Nordeste 10 Nordeste 0 -- -- 73
2020-03-27 20:00:00 6.9 6 Sur 10 Sur 0 -- -- 64
2020-03-27 19:00:00 9.3 6 Sudoeste 19 Sudoeste 0 -- -- 57
2020-03-27 18:00:00 10.7 9 Sudoeste 20 Sudoeste 0 -- -- 51
2020-03-27 17:00:00 11.6 9 Sudoeste 21 Sudoeste 0 -- -- 46
2020-03-27 16:00:00 12.1 11 Sudoeste 20 Sudoeste 0 -- -- 48
2020-03-27 15:00:00 12.4 9 Sudoeste 18 Sudoeste 0 -- -- 40
2020-03-27 14:00:00 11.3 13 Sudoeste 23 Oeste 0 -- -- 44
2020-03-27 13:00:00 10.1 11 Sudoeste 18 Sudoeste 0 -- -- 52
2020-03-27 12:00:00 9.1 9 Oeste 18 Oeste 0 -- -- 55
2020-03-27 11:00:00 7.3 7 Sudoeste 14 Oeste 0 -- -- 62
2020-03-27 10:00:00 4.5 3 Oeste 7 Oeste 0 -- -- 76
2020-03-27 09:00:00 2 2 Nordeste 5 Nordeste 0 -- -- 86
2020-03-27 08:00:00 -1.2 3 Sudeste 8 Este 0 -- -- 95
2020-03-27 07:00:00 -2.1 5 Este 8 Este 0 -- -- 95
2020-03-27 06:00:00 -2.2 2 Nordeste 7 Este 0 -- -- 94
2020-03-27 05:00:00 -2.2 3 Este 6 Sudeste 0 -- -- 95
2020-03-27 04:00:00 -1.8 0 Calma 9 Nordeste 0 -- -- 94
2020-03-27 03:00:00 -1.5 3 Este 6 Este 0 -- -- 95
2020-03-27 02:00:00 -1 3 Nordeste 8 Nordeste 0 -- -- 94
2020-03-27 01:00:00 -0.5 4 Este 6 Este 0 -- -- 93
2020-03-27 00:00:00 0.4 5 Este 10 Nordeste 0 -- -- 90
2020-03-26 23:00:00 0.9 6 Nordeste 8 Nordeste 0 -- -- 89
2020-03-26 22:00:00 2.1 3 Nordeste 8 Este 0 -- -- 85
2020-03-26 21:00:00 3.9 6 Nordeste 13 Este 0 -- -- 80
2020-03-26 20:00:00 5.6 4 Este 14 Sudeste 0 -- -- 70
2020-03-26 19:00:00 6.1 4 Este 26 Este 0 -- -- 64
2020-03-26 18:00:00 7.2 14 Sudeste 36 Sudeste 0 -- -- 61
2020-03-26 17:00:00 8.4 10 Sudeste 28 Sur 0 -- -- 58
2020-03-26 16:00:00 8.8 12 Este 28 Este 0 -- -- 53
2020-03-26 15:00:00 11.2 5 Sudoeste 21 Oeste 0 -- -- 26
2020-03-26 14:00:00 10.9 9 Norte 21 Noroeste 0 -- -- 38
2020-03-26 13:00:00 11.5 10 Noroeste 23 Nordeste 0 -- -- 34
2020-03-26 12:00:00 11.1 12 Nordeste 21 Nordeste 0 -- -- 38
2020-03-26 11:00:00 9.4 5 Noroeste 13 Oeste 0 -- -- 56
2020-03-26 10:00:00 7 3 Noroeste 12 Sudoeste 0 -- -- 71
2020-03-26 09:00:00 4.1 6 Sur 9 Sur 0 -- -- 94
2020-03-26 08:00:00 3.3 4 Este 8 Este 0 -- -- 96
2020-03-26 07:00:00 3.1 0 Calma 3 Nordeste 0 -- -- 96
2020-03-26 06:00:00 3.2 3 Norte 8 Este 0 -- -- 92
2020-03-26 05:00:00 4 0 Calma -- -- 0 -- -- 92
2020-03-26 04:00:00 4.4 4 Sudoeste 6 Sur 0 -- -- 89
2020-03-26 03:00:00 4.5 0 Calma 4 Sur 0 -- -- 89
2020-03-26 02:00:00 4.5 4 Sur 11 Sudoeste 0 -- -- 87
2020-03-26 01:00:00 4.6 4 Sudoeste 6 Sur 0 -- -- 88
2020-03-26 00:00:00 4.5 4 Sudoeste 7 Sudoeste 0 -- -- 87
2020-03-25 23:00:00 4.7 0 Calma 6 Sudoeste 0 -- -- 88
2020-03-25 22:00:00 4.8 4 Sudoeste 6 Sudoeste 0 -- -- 85
2020-03-25 21:00:00 5.1 2 Oeste 4 Nordeste 0 -- -- 85
2020-03-25 20:00:00 5.1 2 Norte 5 Sudoeste 0 -- -- 83
2020-03-25 19:00:00 5.3 5 Sudoeste 8 Oeste 0 -- -- 80
2020-03-25 18:00:00 5.7 5 Sudoeste 11 Sudoeste 0 -- -- 76
2020-03-25 17:00:00 5.7 5 Oeste 11 Sudoeste 0 -- -- 75
2020-03-25 16:00:00 5.9 5 Oeste 10 Oeste 0 -- -- 76
2020-03-25 15:00:00 5.6 6 Noroeste 12 Norte 0 -- -- 76
2020-03-25 14:00:00 5.1 5 Nordeste 14 Nordeste 0 -- -- 81
2020-03-25 13:00:00 4.7 8 Nordeste 15 Nordeste 0 -- -- 84
2020-03-25 12:00:00 3.8 9 Nordeste 15 Este 0 -- -- 87
2020-03-25 11:00:00 3.6 6 Nordeste 18 Sudeste 0 -- -- 85
2020-03-25 10:00:00 3.4 5 Este 19 Este 0 -- -- 84
2020-03-25 09:00:00 3.4 8 Este 19 Este 0 -- -- 86
2020-03-25 08:00:00 3.5 3 Oeste 10 Oeste 0.2 -- -- 95
2020-03-25 07:00:00 3.6 5 Sudoeste 14 Este 0.6 -- -- 95
2020-03-25 06:00:00 3.7 7 Este 12 Este 0.8 -- -- 93
2020-03-25 05:00:00 4.5 2 Norte 8 Este 0.6 -- -- 92
2020-03-25 04:00:00 5 3 Oeste 13 Sudoeste 0.4 -- -- 89
2020-03-25 03:00:00 5.6 9 Oeste 13 Oeste 0.8 -- -- 94
2020-03-25 02:00:00 6 2 Norte 14 Norte 0 -- -- 90
2020-03-25 01:00:00 6.3 5 Norte 13 Este 0 -- -- 90
2020-03-25 00:00:00 6.9 4 Este 13 Sur 0 -- -- 88
2020-03-24 23:00:00 7.1 5 Noroeste 10 Norte 0 -- -- 92
2020-03-24 22:00:00 7.3 5 Noroeste 21 Norte 0 -- -- 90
2020-03-24 21:00:00 7.9 6 Oeste 17 Noroeste 0.6 -- -- 89
2020-03-24 20:00:00 8.8 4 Este 23 Sudeste 3.4 -- -- 89
2020-03-24 19:00:00 9.8 4 Nordeste 12 Sur 2 -- -- 87
2020-03-24 18:00:00 11.7 9 Sur 27 Sudoeste 0 -- -- 68
2020-03-24 17:00:00 12.2 14 Sudoeste 30 Sudoeste 0 -- -- 66
2020-03-24 16:00:00 13.4 17 Sudoeste 33 Sudoeste 0 -- -- 61
2020-03-24 15:00:00 13.3 15 Sudoeste 26 Sudoeste 0 -- -- 65
2020-03-24 14:00:00 13.8 14 Sudoeste 20 Sudoeste 0 -- -- 63
2020-03-24 13:00:00 13 10 Sudoeste 17 Sudoeste 0 -- -- 62
2020-03-24 12:00:00 12 7 Sudoeste 21 Sudoeste 0 -- -- 70
2020-03-24 11:00:00 10.7 9 Oeste 15 Sudoeste 0 -- -- 78
2020-03-24 10:00:00 10.1 4 Sudoeste 9 Oeste 0 -- -- 77
2020-03-24 09:00:00 8.6 4 Oeste 6 Sudoeste 0 -- -- 88
2020-03-24 08:00:00 7.9 0 Calma 4 Oeste 0 -- -- 94
2020-03-24 07:00:00 7.6 3 Sudeste 5 Este 0 -- -- 94
2020-03-24 06:00:00 7.5 4 Noroeste 10 Sur 0 -- -- 93
2020-03-24 05:00:00 7.8 3 Sur 5 Sur 0 -- -- 92
2020-03-24 04:00:00 8 2 Sudoeste 5 Sur 0 -- -- 91
2020-03-24 03:00:00 8.1 3 Sudeste 5 Sudeste 0 -- -- 90
2020-03-24 02:00:00 8.2 2 Este 6 Este 0 -- -- 90
2020-03-24 01:00:00 7.8 0 Calma 5 Sur 0 -- -- 91
2020-03-24 00:00:00 7.7 3 Sur 4 Sur 0 -- -- 90
2020-03-23 23:00:00 7.4 3 Sur 6 Sudeste 0 -- -- 88
2020-03-23 22:00:00 8.7 3 Norte 8 Sudeste 0 -- -- 82
2020-03-23 21:00:00 10.6 3 Este 22 Sudeste 0 -- -- 73
2020-03-23 20:00:00 11.8 3 Sudeste 14 Sudeste 0 -- -- 69
2020-03-23 19:00:00 12.3 9 Este 18 Este 0 -- -- 65
2020-03-23 18:00:00 13 11 Nordeste 25 Este 0 -- -- 63
2020-03-23 17:00:00 13.3 13 Nordeste 26 Nordeste 0 -- -- 61
2020-03-23 16:00:00 14 13 Este 31 Este 0 -- -- 57
2020-03-23 15:00:00 14.4 19 Este 31 Este 0 -- -- 60
2020-03-23 14:00:00 14.2 18 Este 30 Este 0 -- -- 59
2020-03-23 13:00:00 13 17 Este 30 Este 0 -- -- 65
2020-03-23 12:00:00 12.8 19 Este 35 Este 0 -- -- 65
2020-03-23 11:00:00 13.1 17 Este 27 Nordeste 0 -- -- 65
2020-03-23 10:00:00 11.2 4 Norte 7 Norte 0 -- -- 79
2020-03-23 09:00:00 7.6 2 Sudeste 6 Sudeste 0 -- -- 92
2020-03-23 08:00:00 6.3 2 Noroeste 9 Sudeste 0 -- -- 93
2020-03-23 07:00:00 5.7 3 Sudeste 7 Sudeste 0 -- -- 95
2020-03-23 06:00:00 4.8 4 Sudeste 8 Nordeste 0 -- -- 95
2020-03-23 05:00:00 4.9 2 Este 10 Nordeste 0 -- -- 92
2020-03-23 04:00:00 5.4 3 Nordeste 6 Nordeste 0 -- -- 93
2020-03-23 03:00:00 5.6 2 Este 4 Sur 0 -- -- 93
2020-03-23 02:00:00 7 2 Sudoeste 6 Sudeste 0 -- -- 86
2020-03-23 01:00:00 9.1 3 Este 5 Este 0 -- -- 85
2020-03-23 00:00:00 9.4 2 Nordeste 9 Este 0 -- -- 83
2020-03-22 23:00:00 9.8 5 Nordeste 8 Este 0 -- -- 80
2020-03-22 22:00:00 10.4 4 Este 10 Sudeste 0 -- -- 76
2020-03-22 21:00:00 10.9 5 Sudeste 13 Oeste 0 -- -- 73
2020-03-22 20:00:00 11.4 5 Oeste 22 Sudeste 0 -- -- 71
2020-03-22 19:00:00 12.3 11 Sudeste 25 Sur 0 -- -- 71
2020-03-22 18:00:00 13.7 6 Sudeste 15 Sur 0 -- -- 59
2020-03-22 17:00:00 14.1 8 Oeste 19 Oeste 0 -- -- 64
2020-03-22 16:00:00 15 8 Sudoeste 19 Sudoeste 0 -- -- 58
2020-03-22 15:00:00 14.7 12 Sudoeste 24 Sudoeste 0 -- -- 62
2020-03-22 14:00:00 14.4 4 Este 29 Sudoeste 0 -- -- 54
2020-03-22 13:00:00 13.6 4 Sudoeste 12 Oeste 0 -- -- 54
2020-03-22 12:00:00 13.5 3 Noroeste 9 Nordeste 0 -- -- 60
2020-03-22 11:00:00 12.8 4 Nordeste 11 Oeste 0 -- -- 64
2020-03-22 10:00:00 11.2 2 Sudoeste 6 Sudoeste 0 -- -- 71
2020-03-22 09:00:00 9.5 2 Nordeste 6 Este 0 -- -- 79
2020-03-22 08:00:00 6.4 2 Este 5 Norte 0 -- -- 93
2020-03-22 07:00:00 7.1 3 Este 5 Nordeste 0 -- -- 89
2020-03-22 06:00:00 7.1 4 Este 7 Nordeste 0 -- -- 88
2020-03-22 05:00:00 7 4 Este 6 Este 0 -- -- 90
2020-03-22 04:00:00 7.1 3 Nordeste 8 Este 0 -- -- 86
2020-03-22 03:00:00 6.9 6 Este 13 Nordeste 0 -- -- 87
2020-03-22 02:00:00 6.9 5 Este 12 Nordeste 0 -- -- 86
2020-03-22 01:00:00 7.1 3 Nordeste 6 Sur 0 -- -- 88
2020-03-22 00:00:00 7.8 2 Sudoeste 8 Nordeste 0 -- -- 85
2020-03-21 23:00:00 8.3 5 Nordeste 13 Nordeste 0 -- -- 79
2020-03-21 22:00:00 7.2 0 Calma 8 Sur 0 -- -- 80
2020-03-21 21:00:00 7 4 Sudeste 8 Sur 0 -- -- 80
2020-03-21 20:00:00 8.5 8 Sur 11 Sudoeste 0 -- -- 73
2020-03-21 19:00:00 11.3 9 Sudoeste 20 Oeste 0 -- -- 63
2020-03-21 18:00:00 13.4 14 Sudoeste 23 Oeste 0 -- -- 58
2020-03-21 17:00:00 14.5 15 Oeste 24 Sudoeste 0 -- -- 57
2020-03-21 16:00:00 15 13 Oeste 24 Oeste 0 -- -- 55
2020-03-21 15:00:00 15.2 14 Sudoeste 22 Sudoeste 0 -- -- 52
2020-03-21 14:00:00 14.7 9 Oeste 17 Oeste 0 -- -- 53
2020-03-21 13:00:00 13.4 7 Oeste 14 Oeste 0 -- -- 57
2020-03-21 12:00:00 12.6 6 Oeste 12 Oeste 0 -- -- 59
2020-03-21 11:00:00 11.2 4 Sur 8 Sudoeste 0 -- -- 62
2020-03-21 10:00:00 9.2 2 Norte 6 Nordeste 0 -- -- 80
2020-03-21 09:00:00 6 2 Nordeste 6 Este 0 -- -- 92
2020-03-21 08:00:00 2.8 5 Este 8 Este 0 -- -- 98
2020-03-21 07:00:00 1.7 5 Nordeste 9 Nordeste 0 -- -- 96
2020-03-21 06:00:00 1.9 4 Nordeste 9 Nordeste 0 -- -- 95
2020-03-21 05:00:00 2.9 5 Nordeste 12 Nordeste 0 -- -- 95
2020-03-21 04:00:00 2.6 0 Calma 6 Nordeste 0 -- -- 94
2020-03-21 03:00:00 3.8 4 Este 9 Nordeste 0 -- -- 93
2020-03-21 02:00:00 4.2 5 Nordeste 9 Este 0 -- -- 93
2020-03-21 01:00:00 5 5 Este 8 Este 0 -- -- 91
2020-03-21 00:00:00 5.2 4 Nordeste 8 Nordeste 0 -- -- 88
2020-03-20 23:00:00 6 4 Este 6 Este 0 -- -- 87
2020-03-20 22:00:00 6.8 2 Este 9 Nordeste 0 -- -- 84
2020-03-20 21:00:00 8.1 0 Calma 5 Noroeste 0 -- -- 78
2020-03-20 20:00:00 9.6 5 Sudoeste 10 Sudoeste 0 -- -- 72
2020-03-20 19:00:00 12.1 4 Sudoeste 21 Sudeste 0 -- -- 61
2020-03-20 18:00:00 14.3 7 Sudeste 19 Sudoeste 0 -- -- 45
2020-03-20 17:00:00 14.5 12 Oeste 23 Sudoeste 0 -- -- 56
2020-03-20 16:00:00 15.1 15 Oeste 24 Oeste 0 -- -- 57
2020-03-20 15:00:00 15.1 15 Oeste 28 Sudoeste 0 -- -- 57
2020-03-20 14:00:00 16.2 7 Sudeste 16 Sur 0 -- -- 45
2020-03-20 13:00:00 15.3 6 Norte 16 Nordeste 0 -- -- 51
2020-03-20 12:00:00 13.7 5 Noroeste 15 Oeste 0 -- -- 57
2020-03-20 11:00:00 11.9 7 Oeste 12 Oeste 0 -- -- 67
2020-03-20 10:00:00 9.5 5 Oeste 9 Oeste 0 -- -- 82
2020-03-20 09:00:00 7.5 3 Nordeste 7 Nordeste 0 -- -- 86
2020-03-20 08:00:00 4.6 4 Este 8 Sudeste 0 -- -- 95
2020-03-20 07:00:00 2.8 0 Calma 5 Este 0 -- -- 95
2020-03-20 06:00:00 3.4 0 Calma 8 Nordeste 0 -- -- 92
2020-03-20 05:00:00 4.3 2 Este 8 Nordeste 0 -- -- 92
2020-03-20 04:00:00 5.1 3 Este 8 Este 0 -- -- 91
2020-03-20 03:00:00 5.5 3 Este 7 Este 0 -- -- 92
2020-03-20 02:00:00 6.3 5 Sudeste 12 Nordeste 0 -- -- 91
2020-03-20 01:00:00 6.5 5 Nordeste 8 Nordeste 0 -- -- 92
2020-03-20 00:00:00 6.9 2 Este 9 Nordeste 0 -- -- 90
2020-03-19 23:00:00 8.1 5 Nordeste 10 Nordeste 0 -- -- 88
2020-03-19 22:00:00 9.1 6 Nordeste 15 Nordeste 0 -- -- 85
2020-03-19 21:00:00 11 9 Nordeste 18 Este 0 -- -- 80
2020-03-19 20:00:00 12.7 3 Nordeste 14 Sudeste 0 -- -- 70
2020-03-19 19:00:00 13.5 3 Sur 14 Sudoeste 0 -- -- 68
2020-03-19 18:00:00 14.3 9 Sudoeste 16 Sudoeste 0 -- -- 72
2020-03-19 17:00:00 15.6 11 Sudoeste 26 Sudoeste 0 -- -- 69
2020-03-19 16:00:00 17.2 14 Oeste 33 Sudoeste 0 -- -- 65
2020-03-19 15:00:00 17.8 8 Oeste 11 Noroeste 0 -- -- 46
2020-03-19 14:00:00 17.4 7 Sudeste 19 Sudoeste 0 -- -- 44
2020-03-19 13:00:00 16.6 9 Oeste 19 Sudoeste 0 -- -- 61
2020-03-19 12:00:00 15.3 11 Sudoeste 16 Sudoeste 0 -- -- 71
2020-03-19 11:00:00 14 6 Noroeste 13 Oeste 0 -- -- 75
2020-03-19 10:00:00 11 6 Oeste 9 Oeste 0 -- -- 90
2020-03-19 09:00:00 8.7 3 Noroeste 7 Noroeste 0 -- -- 98
2020-03-19 08:00:00 5.9 4 Este 7 Nordeste 0 -- -- 99
2020-03-19 07:00:00 5.6 5 Este 8 Este 0 -- -- 99
2020-03-19 06:00:00 4.9 2 Nordeste 6 Sudeste 0 -- -- 97
2020-03-19 05:00:00 6 4 Sudeste 10 Este 0 -- -- 98
2020-03-19 04:00:00 5.7 3 Nordeste 6 Sudeste 0 -- -- 96
2020-03-19 03:00:00 7.1 2 Norte 8 Este 0 -- -- 96
2020-03-19 02:00:00 7.6 3 Nordeste 8 Este 0 -- -- 97
2020-03-19 01:00:00 7.3 0 Calma 8 Nordeste 0 -- -- 97
2020-03-19 00:00:00 7.6 2 Este 9 Nordeste 0 -- -- 95
2020-03-18 23:00:00 8.2 3 Nordeste 9 Este 0 -- -- 94
2020-03-18 22:00:00 8.8 0 Calma 5 Este 0 -- -- 93
2020-03-18 21:00:00 10 0 Calma 6 Este 0 -- -- 93
2020-03-18 20:00:00 10.7 4 Sudeste 6 Sudeste 0 -- -- 91
2020-03-18 19:00:00 11.7 5 Sudoeste 15 Sudoeste 0 -- -- 87
2020-03-18 18:00:00 12.9 11 Sudoeste 17 Oeste 0 -- -- 83
2020-03-18 17:00:00 13.9 12 Oeste 17 Sudoeste 0 -- -- 79
2020-03-18 16:00:00 14.8 7 Oeste 12 Sudoeste 0 -- -- 76
2020-03-18 15:00:00 14.6 5 Sudoeste 12 Sudoeste 0 -- -- 75
2020-03-18 14:00:00 14 8 Oeste 11 Oeste 0 -- -- 79
2020-03-18 13:00:00 13.2 6 Oeste 11 Sudoeste 0 -- -- 79
2020-03-18 12:00:00 11.1 9 Sudoeste 13 Sudoeste 0 -- -- 90
2020-03-18 11:00:00 9.8 6 Oeste 9 Oeste 0 -- -- 95
2020-03-18 10:00:00 8.5 2 Oeste 4 Este 0 -- -- 97
2020-03-18 09:00:00 7 2 Nordeste 5 Sudeste 0 -- -- 98
2020-03-18 08:00:00 6.5 3 Sudeste 5 Este 0 -- -- 98
2020-03-18 07:00:00 6.5 5 Este 8 Este 0 -- -- 98
2020-03-18 06:00:00 6.7 0 Calma 7 Este 0 -- -- 98
2020-03-18 05:00:00 6.4 3 Este 6 Nordeste 0 -- -- 98
2020-03-18 04:00:00 6.6 3 Este 5 Este 0 -- -- 97
2020-03-18 03:00:00 7.4 2 Nordeste 6 Este 0 -- -- 97
2020-03-18 02:00:00 7.6 3 Este 5 Este 0 -- -- 97
2020-03-18 01:00:00 8.1 3 Nordeste 9 Nordeste 0 -- -- 95
2020-03-18 00:00:00 8.7 5 Este 8 Este 0 -- -- 95
2020-03-17 23:00:00 8.7 0 Calma 8 Este 0 -- -- 94
2020-03-17 22:00:00 8.8 5 Este 8 Este 0 -- -- 93
2020-03-17 21:00:00 9.6 0 Calma 6 Sur 0 -- -- 91
2020-03-17 20:00:00 10.9 6 Sur 9 Sur 0 -- -- 84
2020-03-17 19:00:00 12.5 3 Este 6 Oeste 0 -- -- 88
2020-03-17 18:00:00 13 4 Sur 6 Sur 0 -- -- 86
2020-03-17 17:00:00 12.9 5 Sudoeste 7 Sudoeste 0 -- -- 85
2020-03-17 16:00:00 13.2 3 Oeste 4 Sudoeste 0 -- -- 84
2020-03-17 15:00:00 13 3 Oeste 7 Sudoeste 0 -- -- 88
2020-03-17 14:00:00 12.2 3 Sudoeste 5 Noroeste 0 -- -- 84
2020-03-17 13:00:00 12 2 Sur 8 Oeste 0.2 -- -- 84
2020-03-17 12:00:00 11.7 6 Oeste 10 Sur 0 -- -- 82
2020-03-17 11:00:00 10.6 2 Noroeste 3 Oeste 0 -- -- 92
2020-03-17 10:00:00 9.7 3 Sur 6 Noroeste 0.2 -- -- 91
2020-03-17 09:00:00 9.5 6 Norte 12 Nordeste 0 -- -- 89
2020-03-17 08:00:00 8.5 6 Nordeste 13 Nordeste 0 -- -- 92
2020-03-17 07:00:00 8.2 3 Noroeste 10 Nordeste 0 -- -- 92
2020-03-17 06:00:00 8.9 9 Nordeste 16 Nordeste 0 -- -- 87
2020-03-17 05:00:00 7.7 6 Nordeste 9 Nordeste 0 -- -- 92
2020-03-17 04:00:00 8.1 7 Nordeste 16 Este 0 -- -- 89
2020-03-17 03:00:00 7.1 7 Nordeste 11 Nordeste 0 -- -- 93
2020-03-17 02:00:00 8.1 3 Oeste 22 Este 0 -- -- 85
2020-03-17 01:00:00 8.7 16 Este 27 Este 0 -- -- 83
2020-03-17 00:00:00 9.2 9 Este 26 Este 0 -- -- 82
2020-03-16 23:00:00 8.9 13 Este 28 Nordeste 0 -- -- 85
2020-03-16 22:00:00 8.8 16 Nordeste 28 Este 0 -- -- 86
2020-03-16 21:00:00 9.4 15 Nordeste 29 Este 0 -- -- 83
2020-03-16 20:00:00 9.3 21 Este 31 Nordeste 0 -- -- 82
2020-03-16 19:00:00 10 15 Este 22 Este 0 -- -- 80
2020-03-16 18:00:00 9.8 12 Nordeste 22 Nordeste 0 -- -- 85
2020-03-16 17:00:00 9.1 14 Nordeste 27 Nordeste 0.4 -- -- 89
2020-03-16 16:00:00 9.5 17 Este 27 Este 0 -- -- 82
2020-03-16 15:00:00 9 10 Nordeste 22 Nordeste 0 -- -- 85
2020-03-16 14:00:00 7.9 9 Nordeste 33 Este 1 -- -- 88
2020-03-16 13:00:00 7.3 17 Nordeste 27 Nordeste 1.4 -- -- 93
2020-03-16 12:00:00 7.5 16 Nordeste 26 Nordeste 1.4 -- -- 91
2020-03-16 11:00:00 8.2 12 Nordeste 25 Este 1.8 -- -- 93
2020-03-16 10:00:00 8.3 7 Norte 13 Nordeste 1.6 -- -- 97
2020-03-16 09:00:00 7.7 10 Nordeste 15 Nordeste 2.2 -- -- 97
2020-03-16 08:00:00 7.7 10 Nordeste 17 Nordeste 2.2 -- -- 95
2020-03-16 07:00:00 8 9 Nordeste 13 Nordeste 1.6 -- -- 97
2020-03-16 06:00:00 8 6 Nordeste 19 Este 2 -- -- 95
2020-03-16 05:00:00 8.3 9 Este 28 Este 1.8 -- -- 89
2020-03-16 04:00:00 8.7 14 Este 27 Este 0.6 -- -- 90
2020-03-16 03:00:00 8.8 12 Nordeste 30 Nordeste 0.4 -- -- 92
2020-03-16 02:00:00 8.9 16 Este 32 Este 1.2 -- -- 93
2020-03-16 01:00:00 9.2 20 Este 30 Este 3.8 -- -- 93
2020-03-16 00:00:00 9.5 6 Nordeste 14 Este 1.4 -- -- 91
2020-03-15 23:00:00 9.8 6 Nordeste 15 Nordeste 0 -- -- 91
2020-03-15 22:00:00 10 5 Este 12 Sur 1.8 -- -- 90
2020-03-15 21:00:00 11 8 Este 24 Nordeste 0.2 -- -- 86
2020-03-15 20:00:00 11.2 9 Este 23 Nordeste 0.2 -- -- 87
2020-03-15 19:00:00 11.6 6 Norte 35 Sudeste 3.2 -- -- 90
2020-03-15 18:00:00 14.5 11 Sudeste 33 Sudeste 0 -- -- 67
2020-03-15 17:00:00 16.1 14 Sudeste 27 Sur 0 -- -- 59
2020-03-15 16:00:00 17.1 14 Sudeste 27 Sudeste 0 -- -- 51
2020-03-15 15:00:00 18.2 9 Sudeste 18 Sudeste 0 -- -- 49
2020-03-15 14:00:00 18.1 6 Sur 16 Sur 0 -- -- 46
2020-03-15 13:00:00 17.5 6 Nordeste 15 Este 0 -- -- 48
2020-03-15 12:00:00 15.8 5 Nordeste 11 Nordeste 0 -- -- 52
2020-03-15 11:00:00 12.8 5 Oeste 10 Sudoeste 0 -- -- 80
2020-03-15 10:00:00 9.4 6 Oeste 8 Sudoeste 0 -- -- 92
2020-03-15 09:00:00 6.3 0 Calma 3 Nordeste 0 -- -- 99
2020-03-15 08:00:00 3.2 0 Calma 5 Sudeste 0 -- -- 99
2020-03-15 07:00:00 3.4 4 Este 8 Este 0 -- -- 99
2020-03-15 06:00:00 2.8 0 Calma 6 Este 0 -- -- 97
2020-03-15 05:00:00 2.8 3 Este 6 Nordeste 0 -- -- 98
2020-03-15 04:00:00 3 0 Calma 4 Nordeste 0 -- -- 97
2020-03-15 03:00:00 4.3 2 Sudoeste 4 Nordeste 0 -- -- 96
2020-03-15 02:00:00 4 0 Calma 3 Sudeste 0 -- -- 95
2020-03-15 01:00:00 5 4 Sudeste 5 Sudeste 0 -- -- 93
2020-03-15 00:00:00 5.9 3 Sur 4 Nordeste 0 -- -- 93
2020-03-14 23:00:00 6.5 3 Este 6 Nordeste 0 -- -- 91
2020-03-14 22:00:00 7.8 3 Nordeste 9 Este 0 -- -- 88
2020-03-14 21:00:00 8.9 4 Este 8 Este 0 -- -- 86
2020-03-14 20:00:00 10.5 5 Norte 11 Sur 0 -- -- 80
2020-03-14 19:00:00 12.5 8 Sur 17 Sudoeste 0 -- -- 72
2020-03-14 18:00:00 13.9 12 Sudoeste 22 Oeste 0 -- -- 71
2020-03-14 17:00:00 14.4 16 Oeste 25 Oeste 0 -- -- 70
2020-03-14 16:00:00 14.3 19 Oeste 31 Oeste 0 -- -- 72
2020-03-14 15:00:00 13.6 21 Oeste 28 Oeste 0 -- -- 74
2020-03-14 14:00:00 14.6 13 Sur 23 Sur 0 -- -- 71
2020-03-14 13:00:00 13.5 6 Sudoeste 16 Sudoeste 0 -- -- 79
2020-03-14 12:00:00 11.6 10 Sudoeste 13 Sudoeste 0 -- -- 90
2020-03-14 11:00:00 10.5 8 Sudoeste 13 Oeste 0 -- -- 93
2020-03-14 10:00:00 10.4 3 Sudoeste 8 Sudoeste 0 -- -- 97
2020-03-14 09:00:00 9.2 3 Oeste 6 Oeste 0 -- -- 99
2020-03-14 08:00:00 8.3 3 Nordeste 8 Este 0 -- -- 98
2020-03-14 07:00:00 8 0 Calma 7 Sur 0 -- -- 97
2020-03-14 06:00:00 8.6 4 Nordeste 5 Noroeste 0 -- -- 97
2020-03-14 05:00:00 9.1 4 Sudeste 7 Sudeste 0 -- -- 97
2020-03-14 04:00:00 8.5 2 Nordeste 4 Noroeste 0 -- -- 97
2020-03-14 03:00:00 8.3 0 Calma 4 Sudeste 0 -- -- 97
2020-03-14 02:00:00 8.1 3 Este 6 Este 0 -- -- 98
2020-03-14 01:00:00 7.6 4 Sudoeste 9 Sudoeste 0 -- -- 96
2020-03-14 00:00:00 8.4 4 Sudeste 6 Sudeste 0 -- -- 95
2020-03-13 23:00:00 9.1 0 Calma 8 Este 0 -- -- 91
2020-03-13 22:00:00 10.7 2 Norte 7 Sudeste 0 -- -- 88
2020-03-13 21:00:00 11.1 4 Sur 12 Sudoeste 0 -- -- 90
2020-03-13 20:00:00 12 8 Sudoeste 15 Sudoeste 0 -- -- 87
2020-03-13 19:00:00 12.7 5 Oeste 7 Oeste 0 -- -- 85
2020-03-13 18:00:00 13.2 4 Sudoeste 11 Oeste 0 -- -- 82
2020-03-13 17:00:00 13.5 7 Sudoeste 13 Sudoeste 0 -- -- 80
2020-03-13 16:00:00 13.7 5 Oeste 8 Oeste 0 -- -- 78
2020-03-13 15:00:00 12.9 4 Sudoeste 14 Oeste 0 -- -- 83
2020-03-13 14:00:00 12 12 Oeste 20 Oeste 0 -- -- 88
2020-03-13 13:00:00 12.9 11 Oeste 18 Oeste 0 -- -- 83
2020-03-13 12:00:00 13.5 4 Nordeste 18 Sur 0 -- -- 77
2020-03-13 11:00:00 13.8 10 Oeste 20 Este 0 -- -- 77
2020-03-13 10:00:00 12.2 4 Norte 9 Norte 0 -- -- 87
2020-03-13 09:00:00 10.4 3 Sudoeste 6 Sur 0 -- -- 96
2020-03-13 08:00:00 8.8 4 Noroeste 6 Noroeste 0 -- -- 94
2020-03-13 07:00:00 9.6 4 Sudeste 9 Este 0 -- -- 92
2020-03-13 06:00:00 10.1 5 Este 10 Este 0 -- -- 91
2020-03-13 05:00:00 9.8 3 Norte 6 Este 0 -- -- 92
2020-03-13 04:00:00 11.3 2 Sudeste 14 Noroeste 0 -- -- 85
2020-03-13 03:00:00 12.4 9 Noroeste 14 Sur 0 -- -- 85
2020-03-13 02:00:00 13.5 4 Este 27 Sur 0 -- -- 81
2020-03-13 01:00:00 14.6 14 Sur 20 Sur 0 -- -- 74
2020-03-13 00:00:00 14.5 7 Este 20 Sur 0 -- -- 77
2020-03-12 23:00:00 16 6 Oeste 43 Sudeste 0.2 -- -- 68
2020-03-12 22:00:00 14.7 6 Sur 25 Este 0.2 -- -- 75
2020-03-12 21:00:00 15.7 12 Este 27 Este 0.6 -- -- 70
2020-03-12 20:00:00 15.7 5 Este 8 Este 0 -- -- 62
2020-03-12 19:00:00 17.4 3 Sur 8 Sudeste 0 -- -- 59
2020-03-12 18:00:00 20.9 3 Sudeste 8 Sudoeste 0 -- -- 43
2020-03-12 17:00:00 20.9 8 Oeste 14 Sudoeste 0 -- -- 51
2020-03-12 16:00:00 22.2 9 Oeste 17 Oeste 0 -- -- 44
2020-03-12 15:00:00 22.3 14 Oeste 18 Oeste 0 -- -- 44
2020-03-12 14:00:00 22.6 8 Sudoeste 12 Sudoeste 0 -- -- 45
2020-03-12 13:00:00 21.9 2 Oeste 6 Oeste 0 -- -- 42
2020-03-12 12:00:00 19.9 3 Oeste 7 Oeste 0 -- -- 51
2020-03-12 11:00:00 17.1 2 Sur 8 Oeste 0 -- -- 55
2020-03-12 10:00:00 13.5 5 Oeste 8 Oeste 0 -- -- 70
2020-03-12 09:00:00 9.7 3 Oeste 10 Nordeste 0 -- -- 81
2020-03-12 08:00:00 7 7 Nordeste 13 Nordeste 0 -- -- 86
2020-03-12 07:00:00 5.9 5 Nordeste 7 Nordeste 0 -- -- 92
2020-03-12 06:00:00 6 3 Este 8 Este 0 -- -- 89
2020-03-12 05:00:00 7.9 5 Sudeste 10 Este 0 -- -- 87
2020-03-12 04:00:00 8.1 7 Este 9 Este 0 -- -- 88
2020-03-12 03:00:00 8.7 5 Nordeste 10 Nordeste 0 -- -- 84
2020-03-12 02:00:00 9.4 6 Nordeste 12 Nordeste 0 -- -- 80
2020-03-12 01:00:00 9.5 0 Calma 10 Este 0 -- -- 80
2020-03-12 00:00:00 10.6 5 Este 10 Este 0 -- -- 79
2020-03-11 23:00:00 10.9 5 Este 10 Nordeste 0 -- -- 79
2020-03-11 22:00:00 11 2 Este 13 Nordeste 0 -- -- 77
2020-03-11 21:00:00 11.2 6 Nordeste 12 Nordeste 0 -- -- 79
2020-03-11 20:00:00 12.7 4 Nordeste 6 Este 0 -- -- 71
2020-03-11 19:00:00 15.9 3 Sudoeste 12 Sudoeste 0 -- -- 60
2020-03-11 18:00:00 19.3 9 Sudoeste 21 Oeste 0 -- -- 52
2020-03-11 17:00:00 19.9 17 Oeste 25 Sudoeste 0 -- -- 46
2020-03-11 16:00:00 20.4 19 Oeste 26 Oeste 0 -- -- 38
2020-03-11 15:00:00 21.1 14 Oeste 21 Oeste 0 -- -- 37
2020-03-11 14:00:00 20.6 14 Oeste 21 Oeste 0 -- -- 37
2020-03-11 13:00:00 19.1 12 Sudoeste 17 Oeste 0 -- -- 38
2020-03-11 12:00:00 16.5 8 Sudoeste 14 Sudoeste 0 -- -- 52
2020-03-11 11:00:00 13.8 7 Oeste 10 Oeste 0 -- -- 64
2020-03-11 10:00:00 10.6 3 Noroeste 9 Oeste 0 -- -- 72
2020-03-11 09:00:00 7.6 3 Oeste 9 Nordeste 0 -- -- 79
2020-03-11 08:00:00 4.4 3 Este 9 Nordeste 0 -- -- 87
2020-03-11 07:00:00 3.8 4 Sudeste 10 Sudeste 0 -- -- 89
2020-03-11 06:00:00 4.3 4 Sudeste 7 Nordeste 0 -- -- 88
2020-03-11 05:00:00 5.6 5 Nordeste 10 Este 0 -- -- 84
2020-03-11 04:00:00 5.2 4 Nordeste 11 Nordeste 0 -- -- 86
2020-03-11 03:00:00 5 4 Este 8 Este 0 -- -- 88
2020-03-11 02:00:00 6.4 5 Sur 13 Nordeste 0 -- -- 82
2020-03-11 01:00:00 7.1 6 Este 12 Nordeste 0 -- -- 83
2020-03-11 00:00:00 8.4 6 Nordeste 12 Nordeste 0 -- -- 79
2020-03-10 23:00:00 8.3 5 Este 10 Este 0 -- -- 79
2020-03-10 22:00:00 8.9 3 Sudeste 12 Nordeste 0 -- -- 76
2020-03-10 21:00:00 10.2 3 Nordeste 10 Este 0 -- -- 72
2020-03-10 20:00:00 11 3 Nordeste 7 Nordeste 0 -- -- 69
2020-03-10 19:00:00 14 5 Sudoeste 17 Sudoeste 0 -- -- 57
2020-03-10 18:00:00 16.6 7 Sudoeste 16 Oeste 0 -- -- 50
2020-03-10 17:00:00 17.2 13 Oeste 22 Oeste 0 -- -- 48
2020-03-10 16:00:00 16.9 14 Oeste 21 Sudoeste 0 -- -- 47
2020-03-10 15:00:00 16.2 9 Oeste 17 Oeste 0 -- -- 47
2020-03-10 14:00:00 15.5 8 Oeste 14 Oeste 0 -- -- 46
2020-03-10 13:00:00 13.7 4 Oeste 18 Oeste 0 -- -- 50
2020-03-10 12:00:00 11.7 12 Oeste 15 Oeste 0 -- -- 55
2020-03-10 11:00:00 10.4 7 Oeste 10 Oeste 0 -- -- 57
2020-03-10 10:00:00 7 3 Noroeste 8 Oeste 0 -- -- 73
2020-03-10 09:00:00 3.9 2 Norte 10 Nordeste 0 -- -- 81
2020-03-10 08:00:00 1 2 Nordeste 7 Este 0 -- -- 88
2020-03-10 07:00:00 0.9 3 Sur 5 Nordeste 0 -- -- 87
2020-03-10 06:00:00 1.9 2 Este 8 Sudeste 0 -- -- 83
2020-03-10 05:00:00 1.9 2 Este 10 Este 0 -- -- 82
2020-03-10 04:00:00 1.5 2 Nordeste 8 Sudoeste 0 -- -- 84
2020-03-10 03:00:00 2 4 Sur 10 Este 0 -- -- 80
2020-03-10 02:00:00 2.8 6 Nordeste 12 Este 0 -- -- 78
2020-03-10 01:00:00 3.1 4 Nordeste 10 Este 0 -- -- 77
2020-03-10 00:00:00 3.6 4 Este 15 Nordeste 0 -- -- 74
2020-03-09 23:00:00 4.3 7 Este 13 Nordeste 0 -- -- 72
2020-03-09 22:00:00 5.6 3 Este 9 Sudoeste 0 -- -- 65
2020-03-09 21:00:00 8.2 8 Sur 25 Sur 0 -- -- 54
2020-03-09 20:00:00 9.7 13 Sur 31 Sur 0 -- -- 49
2020-03-09 19:00:00 11.5 17 Sudoeste 27 Oeste 0 -- -- 40
2020-03-09 18:00:00 14 18 Sudoeste 29 Sudoeste 0 -- -- 35
2020-03-09 17:00:00 15.8 14 Oeste 32 Noroeste 0 -- -- 30
2020-03-09 16:00:00 16.4 19 Oeste 31 Oeste 0 -- -- 30
2020-03-09 15:00:00 16.5 18 Oeste 32 Sudoeste 0 -- -- 31
2020-03-09 14:00:00 15.4 14 Sudoeste 33 Sur 0 -- -- 37
2020-03-09 13:00:00 13.9 17 Sudoeste 32 Sur 0 -- -- 44
2020-03-09 12:00:00 12.3 21 Sur 31 Sur 0 -- -- 50
2020-03-09 11:00:00 10.9 18 Sudoeste 29 Sur 0 -- -- 55
2020-03-09 10:00:00 9.4 15 Sudoeste 23 Sudoeste 0 -- -- 59
2020-03-09 09:00:00 5 3 Sur 10 Norte 0 -- -- 86
2020-03-09 08:00:00 2.4 5 Este 9 Nordeste 0 -- -- 91
2020-03-09 07:00:00 3.2 6 Este 10 Nordeste 0 -- -- 87
2020-03-09 06:00:00 4.1 4 Nordeste 11 Sudoeste 0 -- -- 84
2020-03-09 05:00:00 5.3 9 Sudoeste 12 Sudoeste 0 -- -- 80
2020-03-09 04:00:00 5.2 3 Sudoeste 18 Sudoeste 0 -- -- 85
2020-03-09 03:00:00 4.2 7 Este 10 Nordeste 0 -- -- 92
2020-03-09 02:00:00 3.9 6 Sudeste 12 Nordeste 0 -- -- 92
2020-03-09 01:00:00 4.8 4 Nordeste 13 Nordeste 0 -- -- 89
2020-03-09 00:00:00 5.9 7 Este 13 Nordeste 0 -- -- 86
2020-03-08 23:00:00 6.5 7 Este 12 Este 0 -- -- 85
2020-03-08 22:00:00 7.2 6 Este 11 Nordeste 0 -- -- 84
2020-03-08 21:00:00 8 4 Nordeste 12 Nordeste 0 -- -- 79
2020-03-08 20:00:00 9.1 3 Sur 6 Sur 0 -- -- 76
2020-03-08 19:00:00 12.4 3 Sudoeste 5 Sudoeste 0 -- -- 65
2020-03-08 18:00:00 13.6 0 Calma 19 Sur 0 -- -- 61
2020-03-08 17:00:00 14 10 Sudoeste 18 Oeste 0 -- -- 56
2020-03-08 16:00:00 15.2 10 Sudoeste 24 Sudoeste 0 -- -- 48
2020-03-08 15:00:00 14.7 15 Sudoeste 26 Oeste 0 -- -- 48
2020-03-08 14:00:00 14.7 13 Oeste 22 Oeste 0 -- -- 47
2020-03-08 13:00:00 13.4 11 Oeste 21 Oeste 0 -- -- 47
2020-03-08 12:00:00 12.2 11 Oeste 18 Sudoeste 0 -- -- 53
2020-03-08 11:00:00 9.9 9 Oeste 13 Sudoeste 0 -- -- 63
2020-03-08 10:00:00 7.3 6 Oeste 9 Oeste 0 -- -- 71
2020-03-08 09:00:00 4.1 4 Nordeste 10 Nordeste 0 -- -- 81
2020-03-08 08:00:00 0.4 3 Este 9 Sudeste 0 -- -- 89
2020-03-08 07:00:00 0.5 0 Calma 5 Oeste 0 -- -- 87
2020-03-08 06:00:00 1.9 5 Sudeste 10 Este 0 -- -- 86
2020-03-08 05:00:00 2 3 Este 9 Este 0 -- -- 84
2020-03-08 04:00:00 3.8 4 Nordeste 10 Sudeste 0 -- -- 78
2020-03-08 03:00:00 4.9 4 Nordeste 9 Este 0 -- -- 75
2020-03-08 02:00:00 5.7 0 Calma 9 Sur 0 -- -- 77
2020-03-08 01:00:00 5.9 3 Noroeste 11 Norte 0 -- -- 77
2020-03-08 00:00:00 6.6 6 Nordeste 11 Nordeste 0 -- -- 73